Time;durP1;ratioP1;P1;durP2;ratioP2;P2;SDS_P1;SDS_P2;PMS_P1;PMS_P2;Temp;Humidity;BMP_temperature;BMP_pressure;BME280_temperature;BME280_humidity;BME280_pressure;Samples;Min_cycle;Max_cycle;Signal;HPM_P1;HPM_P2
2022/05/26 00:01:07;;;;;;;27.37;3.50;;;14.50;30.60;;;;;;5021327;28;20473;-59
2022/05/26 00:03:35;;;;;;;28.77;4.20;;;14.50;30.60;;;;;;5026831;28;20478;-59
2022/05/26 00:06:02;;;;;;;26.90;3.90;;;14.50;30.70;;;;;;5029177;28;20466;-61
2022/05/26 00:08:29;;;;;;;29.40;4.07;;;14.50;30.80;;;;;;5032472;28;20473;-59
2022/05/26 00:10:57;;;;;;;28.97;3.60;;;14.50;30.90;;;;;;5035672;28;20470;-59
2022/05/26 00:13:25;;;;;;;26.63;3.50;;;14.50;30.90;;;;;;5027197;28;20465;-58
2022/05/26 00:15:52;;;;;;;28.70;4.20;;;14.50;30.90;;;;;;5023805;28;21156;-67
2022/05/26 00:18:19;;;;;;;27.37;3.70;;;14.40;30.80;;;;;;5023613;28;20466;-59
2022/05/26 00:20:46;;;;;;;28.87;4.40;;;14.40;30.80;;;;;;5039146;28;20465;-59
2022/05/26 00:23:13;;;;;;;26.53;3.40;;;14.40;30.80;;;;;;5025974;28;20475;-57
2022/05/26 00:25:40;;;;;;;27.23;3.73;;;14.40;31.00;;;;;;5016415;28;20498;-59
2022/05/26 00:28:07;;;;;;;30.33;3.60;;;14.40;30.80;;;;;;5030515;28;20463;-59
2022/05/26 00:30:37;;;;;;;28.73;3.60;;;14.40;30.70;;;;;;5032365;28;20476;-60
2022/05/26 00:33:05;;;;;;;28.23;3.73;;;14.40;30.70;;;;;;5021374;28;20472;-59
2022/05/26 00:35:34;;;;;;;27.80;3.53;;;14.40;30.60;;;;;;5023715;28;20544;-59
2022/05/26 00:38:02;;;;;;;27.83;3.47;;;14.40;30.70;;;;;;5024558;28;20459;-59
2022/05/26 00:40:29;;;;;;;30.20;3.23;;;14.30;30.70;;;;;;5038854;28;20465;-58
2022/05/26 00:42:56;;;;;;;28.73;3.60;;;14.30;30.60;;;;;;5025447;28;20494;-58
2022/05/26 00:45:23;;;;;;;27.80;4.00;;;14.30;30.70;;;;;;5031415;28;20492;-59
2022/05/26 00:47:52;;;;;;;29.03;3.40;;;14.20;30.70;;;;;;5024722;28;20458;-59
2022/05/26 00:50:22;;;;;;;27.63;3.70;;;14.20;30.80;;;;;;5028362;28;20462;-60
2022/05/26 00:52:53;;;;;;;28.50;3.80;;;14.20;30.80;;;;;;5027928;28;20486;-60
2022/05/26 00:55:25;;;;;;;27.90;3.40;;;14.20;31.00;;;;;;5039190;28;20486;-59
2022/05/26 00:57:55;;;;;;;27.57;3.60;;;14.10;31.30;;;;;;5019393;28;20542;-60
2022/05/26 01:00:26;;;;;;;28.37;4.53;;;14.10;31.60;;;;;;5024345;28;20459;-59
2022/05/26 01:03:02;;;;;;;29.67;4.50;;;14.00;31.50;;;;;;5027983;28;20483;-59
2022/05/26 01:05:32;;;;;;;29.67;4.03;;;14.00;31.80;;;;;;5028379;28;20478;-59
2022/05/26 01:08:00;;;;;;;30.60;4.03;;;14.00;31.80;;;;;;5021415;28;20467;-60
2022/05/26 01:10:27;;;;;;;31.90;4.13;;;14.00;31.90;;;;;;5033483;28;20462;-60
2022/05/26 01:12:55;;;;;;;29.43;4.40;;;13.90;32.70;;;;;;5029819;28;20455;-59
2022/05/26 01:15:23;;;;;;;28.17;4.10;;;13.90;32.20;;;;;;5028656;28;20495;-59
2022/05/26 01:18:05;;;;;;;28.77;4.23;;;13.90;32.30;;;;;;5025114;28;20498;-59
2022/05/26 01:20:53;;;;;;;29.50;4.50;;;13.80;32.70;;;;;;5038938;28;20465;-59
2022/05/26 01:23:38;;;;;;;30.93;4.83;;;13.80;32.60;;;;;;5024921;28;20552;-59
2022/05/26 01:26:38;;;;;;;27.70;4.90;;;13.80;32.90;;;;;;5025042;28;20463;-60
2022/05/26 01:29:29;;;;;;;27.23;4.93;;;13.70;33.30;;;;;;4984550;28;20471;-59
2022/05/26 01:32:04;;;;;;;30.87;4.23;;;13.70;33.60;;;;;;5028046;28;20475;-61
2022/05/26 01:34:41;;;;;;;28.23;4.70;;;13.60;33.50;;;;;;5026195;28;20624;-60
2022/05/26 01:37:16;;;;;;;26.90;4.50;;;13.60;33.80;;;;;;5019179;28;20481;-57
2022/05/26 01:39:52;;;;;;;28.30;4.93;;;13.50;34.20;;;;;;5028743;28;20857;-59
2022/05/26 01:42:27;;;;;;;27.47;4.73;;;13.50;34.70;;;;;;5034825;28;20489;-61
2022/05/26 01:45:00;;;;;;;27.50;4.30;;;13.50;34.90;;;;;;5027216;28;20490;-59
2022/05/26 01:47:39;;;;;;;28.10;4.40;;;13.50;34.60;;;;;;5037520;28;20477;-58
2022/05/26 01:50:17;;;;;;;27.80;4.57;;;13.40;34.90;;;;;;5034294;28;20538;-57
2022/05/26 01:52:51;;;;;;;27.13;4.90;;;13.40;35.10;;;;;;5027119;28;20972;-58
2022/05/26 01:55:20;;;;;;;27.50;4.70;;;13.40;35.30;;;;;;5028101;28;20500;-60
2022/05/26 01:57:54;;;;;;;29.80;5.10;;;13.40;35.50;;;;;;5042205;28;20471;-58
2022/05/26 02:00:21;;;;;;;28.57;4.47;;;13.30;35.60;;;;;;5030031;28;20451;-60
2022/05/26 02:02:55;;;;;;;28.00;4.77;;;13.30;35.60;;;;;;5016302;28;20513;-59
2022/05/26 02:05:26;;;;;;;27.97;4.83;;;13.30;35.70;;;;;;5025212;28;20483;-59
2022/05/26 02:07:59;;;;;;;30.10;5.13;;;13.30;35.80;;;;;;5028357;28;20464;-58
2022/05/26 02:10:32;;;;;;;27.00;5.00;;;13.20;35.80;;;;;;5023549;28;21199;-58
2022/05/26 02:13:05;;;;;;;32.30;4.87;;;13.20;35.80;;;;;;5029483;28;20541;-59
2022/05/26 02:15:37;;;;;;;29.07;5.20;;;13.20;35.90;;;;;;5028469;28;20513;-59
2022/05/26 02:18:10;;;;;;;28.30;4.87;;;13.20;35.80;;;;;;5037470;28;20846;-60
2022/05/26 02:20:42;;;;;;;27.80;4.87;;;13.20;35.90;;;;;;5032043;28;20474;-58
2022/05/26 02:23:16;;;;;;;28.27;4.03;;;13.20;35.80;;;;;;5031117;28;20854;-60
2022/05/26 02:25:43;;;;;;;30.20;5.00;;;13.20;35.90;;;;;;5030937;28;20566;-60
2022/05/26 02:28:11;;;;;;;28.17;4.30;;;13.20;35.70;;;;;;5027549;28;20478;-61
2022/05/26 02:30:42;;;;;;;28.03;4.77;;;13.20;35.70;;;;;;5035848;28;20459;-60
2022/05/26 02:33:14;;;;;;;29.30;4.20;;;13.20;35.50;;;;;;5033787;28;20826;-61
2022/05/26 02:35:43;;;;;;;32.03;4.20;;;13.20;35.60;;;;;;5029343;28;21175;-59
2022/05/26 02:38:13;;;;;;;27.20;4.30;;;13.30;35.60;;;;;;5023268;28;20458;-60
2022/05/26 02:40:40;;;;;;;29.10;4.30;;;13.30;35.40;;;;;;5024780;28;20563;-59
2022/05/26 02:43:12;;;;;;;31.13;4.60;;;13.30;35.40;;;;;;5021878;28;20483;-59
2022/05/26 02:45:50;;;;;;;27.97;4.77;;;13.40;35.20;;;;;;5028746;28;20487;-60
2022/05/26 02:48:36;;;;;;;30.30;4.33;;;13.40;35.30;;;;;;5033085;28;20458;-61
2022/05/26 02:51:11;;;;;;;28.73;4.27;;;13.40;35.40;;;;;;5019110;28;20462;-60
2022/05/26 02:53:43;;;;;;;28.70;4.90;;;13.50;35.20;;;;;;5027934;28;20457;-58
2022/05/26 02:56:17;;;;;;;30.37;4.60;;;13.50;35.20;;;;;;5030079;28;20944;-60
2022/05/26 02:58:52;;;;;;;28.80;4.47;;;13.50;35.20;;;;;;5027983;28;20466;-57
2022/05/26 03:01:25;;;;;;;30.27;4.50;;;13.60;35.20;;;;;;5023011;28;20485;-59
2022/05/26 03:03:59;;;;;;;28.67;4.70;;;13.60;35.20;;;;;;5023224;28;20586;-58
2022/05/26 03:06:31;;;;;;;28.30;3.90;;;13.60;35.00;;;;;;5028456;28;20466;-58
2022/05/26 03:09:01;;;;;;;28.37;3.57;;;13.70;34.80;;;;;;5024881;28;20462;-58
2022/05/26 03:11:28;;;;;;;30.50;3.83;;;13.70;34.60;;;;;;5031527;28;20468;-58
2022/05/26 03:13:55;;;;;;;28.03;3.90;;;13.70;34.50;;;;;;5017910;28;21218;-59
2022/05/26 03:16:22;;;;;;;29.23;4.10;;;13.80;34.20;;;;;;5028609;28;20466;-59
2022/05/26 03:18:51;;;;;;;32.17;3.83;;;13.80;34.20;;;;;;5031419;28;21125;-59
2022/05/26 03:21:19;;;;;;;29.50;4.17;;;13.70;34.20;;;;;;5026946;28;20506;-59
2022/05/26 03:23:46;;;;;;;29.40;4.00;;;13.70;34.70;;;;;;5029167;28;20489;-59
2022/05/26 03:26:13;;;;;;;29.27;3.73;;;13.70;34.10;;;;;;5022298;28;20498;-58
2022/05/26 03:28:39;;;;;;;29.60;3.80;;;13.70;34.00;;;;;;5026460;28;20489;-59
2022/05/26 03:31:07;;;;;;;29.13;3.90;;;13.70;33.90;;;;;;5023396;28;20472;-59
2022/05/26 03:41:47;;;;;;;28.40;3.30;;;13.60;33.70;;;;;;4991767;28;20455;-58
2022/05/26 03:44:14;;;;;;;28.97;3.80;;;13.70;33.80;;;;;;5021818;28;20483;-60
2022/05/26 03:46:41;;;;;;;27.77;3.40;;;13.60;33.80;;;;;;5027254;28;20454;-58
2022/05/26 03:49:08;;;;;;;29.40;4.10;;;13.60;33.70;;;;;;5031231;28;20470;-58
2022/05/26 03:51:35;;;;;;;27.87;3.40;;;13.50;33.80;;;;;;5018914;28;20459;-59
2022/05/26 03:54:03;;;;;;;32.83;4.63;;;13.50;33.90;;;;;;5016929;28;20526;-62
2022/05/26 03:56:29;;;;;;;29.50;3.30;;;13.50;33.90;;;;;;5030342;28;20462;-59
2022/05/26 03:58:56;;;;;;;28.93;3.80;;;13.50;33.80;;;;;;5030175;28;20489;-61
2022/05/26 04:01:23;;;;;;;28.70;3.70;;;13.50;33.80;;;;;;5015757;28;20493;-59
2022/05/26 04:03:50;;;;;;;28.77;3.37;;;13.50;33.80;;;;;;5022961;28;20495;-59
2022/05/26 04:06:17;;;;;;;28.33;3.50;;;13.60;33.70;;;;;;5013994;28;20467;-58
2022/05/26 04:08:44;;;;;;;27.90;3.37;;;13.60;33.70;;;;;;5018456;28;20473;-58
2022/05/26 04:11:12;;;;;;;28.50;3.43;;;13.70;33.60;;;;;;5015894;28;22234;-58
2022/05/26 04:13:39;;;;;;;28.90;3.17;;;13.70;33.50;;;;;;5022362;28;20467;-64
2022/05/26 04:16:06;;;;;;;28.23;3.27;;;13.70;33.50;;;;;;5029828;28;20491;-59
2022/05/26 04:18:34;;;;;;;27.67;2.90;;;13.80;33.30;;;;;;5026146;28;20493;-59
2022/05/26 04:21:05;;;;;;;28.77;3.40;;;13.80;33.40;;;;;;5032644;28;20516;-59
2022/05/26 04:23:32;;;;;;;27.57;3.40;;;13.90;33.40;;;;;;5024560;28;20510;-59
2022/05/26 04:25:59;;;;;;;32.90;4.03;;;13.90;33.50;;;;;;5033666;28;20469;-61
2022/05/26 04:28:27;;;;;;;29.53;3.60;;;14.00;33.50;;;;;;5033800;28;20458;-59
2022/05/26 04:30:54;;;;;;;29.13;3.47;;;14.00;33.50;;;;;;5028378;28;20458;-58
2022/05/26 04:33:21;;;;;;;29.10;3.50;;;14.00;33.50;;;;;;5023304;28;20459;-58
2022/05/26 04:35:48;;;;;;;29.17;3.57;;;14.10;33.50;;;;;;5032296;28;20525;-59
2022/05/26 04:38:15;;;;;;;29.07;3.30;;;14.10;33.40;;;;;;5037156;28;20464;-59
2022/05/26 04:40:43;;;;;;;28.70;3.03;;;14.20;33.30;;;;;;5033378;28;20474;-59
2022/05/26 04:43:10;;;;;;;27.83;3.60;;;14.30;33.20;;;;;;5023527;28;20464;-58
2022/05/26 04:45:39;;;;;;;30.00;3.80;;;14.40;33.30;;;;;;5027251;28;21208;-64
2022/05/26 04:48:07;;;;;;;28.67;3.50;;;14.50;33.10;;;;;;5021886;28;20464;-61
2022/05/26 04:50:34;;;;;;;35.70;4.17;;;14.60;32.80;;;;;;5026387;28;20467;-61
2022/05/26 04:53:01;;;;;;;29.00;3.40;;;14.60;32.70;;;;;;5036076;28;20545;-60
2022/05/26 04:55:28;;;;;;;27.73;3.77;;;14.70;32.80;;;;;;5031027;28;20956;-58
2022/05/26 04:57:55;;;;;;;29.50;3.10;;;14.70;32.70;;;;;;5028224;28;20457;-58
2022/05/26 05:00:21;;;;;;;27.90;3.20;;;14.80;32.60;;;;;;5027213;28;20463;-58
2022/05/26 05:02:49;;;;;;;28.40;3.33;;;14.90;32.60;;;;;;5032605;28;20459;-58
2022/05/26 05:05:16;;;;;;;27.90;3.57;;;14.90;32.60;;;;;;5037168;28;20492;-59
2022/05/26 05:07:43;;;;;;;30.17;4.90;;;15.00;32.40;;;;;;5037322;28;20544;-58
2022/05/26 05:10:10;;;;;;;29.50;3.20;;;15.10;32.30;;;;;;5031234;28;20454;-59
2022/05/26 05:12:40;;;;;;;29.00;3.03;;;15.20;32.10;;;;;;5034708;28;20855;-59
2022/05/26 05:15:11;;;;;;;28.07;3.47;;;15.30;31.90;;;;;;5027100;28;20506;-58
2022/05/26 05:17:38;;;;;;;29.03;3.00;;;15.50;31.60;;;;;;5029756;28;20812;-60
2022/05/26 05:20:08;;;;;;;30.00;2.60;;;15.60;30.90;;;;;;5033330;28;20461;-59
2022/05/26 05:22:41;;;;;;;28.40;2.47;;;15.80;30.80;;;;;;5032883;28;20459;-59
2022/05/26 05:25:14;;;;;;;27.90;2.60;;;16.40;29.40;;;;;;5033723;28;20486;-59
2022/05/26 05:27:45;;;;;;;28.70;2.83;;;16.70;28.80;;;;;;5027868;28;20459;-60
2022/05/26 05:30:15;;;;;;;28.00;2.80;;;17.00;27.40;;;;;;5027141;28;20451;-59
2022/05/26 05:32:46;;;;;;;27.80;2.70;;;17.20;26.40;;;;;;5024090;28;20852;-59
2022/05/26 05:35:17;;;;;;;28.23;2.70;;;17.60;25.40;;;;;;5020379;28;20479;-59
2022/05/26 05:37:44;;;;;;;27.73;2.43;;;18.80;25.20;;;;;;5027353;28;20469;-60
2022/05/26 05:40:12;;;;;;;29.70;2.63;;;21.50;20.10;;;;;;5025106;28;20471;-59
2022/05/26 05:42:39;;;;;;;27.33;2.50;;;24.20;14.70;;;;;;5029381;28;20466;-60
2022/05/26 05:45:07;;;;;;;30.27;2.20;;;25.70;10.40;;;;;;5025773;28;20496;-60
2022/05/26 05:47:34;;;;;;;27.83;2.17;;;27.00;8.70;;;;;;5023557;28;20558;-61
2022/05/26 05:50:01;;;;;;;26.30;2.00;;;27.80;5.70;;;;;;5025129;28;20474;-59
2022/05/26 05:52:29;;;;;;;26.57;2.50;;;27.30;5.40;;;;;;5032051;28;20478;-59
2022/05/26 05:54:57;;;;;;;27.47;2.33;;;26.30;6.20;;;;;;5024343;28;20491;-59
2022/05/26 05:57:23;;;;;;;26.40;2.23;;;25.30;7.50;;;;;;5018481;28;20471;-59
2022/05/26 05:59:50;;;;;;;26.30;2.50;;;24.40;8.60;;;;;;5029631;28;20455;-60
2022/05/26 06:02:17;;;;;;;26.73;2.20;;;23.70;10.00;;;;;;5040240;28;20526;-61
2022/05/26 06:04:44;;;;;;;26.63;2.37;;;23.30;10.90;;;;;;5029888;28;20490;-59
2022/05/26 06:07:15;;;;;;;28.30;2.00;;;24.00;11.70;;;;;;5025081;28;20468;-60
2022/05/26 06:09:44;;;;;;;27.40;2.00;;;26.40;9.30;;;;;;5028285;28;20490;-59
2022/05/26 06:12:12;;;;;;;26.00;1.90;;;28.10;5.90;;;;;;5024800;28;21052;-61
2022/05/26 06:14:40;;;;;;;26.40;1.67;;;29.60;3.30;;;;;;5031358;28;20478;-59
2022/05/26 06:17:08;;;;;;;25.70;1.90;;;29.80;2.40;;;;;;5029423;28;20474;-62
2022/05/26 06:19:35;;;;;;;28.07;2.53;;;30.70;1.10;;;;;;5023768;28;20470;-59
2022/05/26 06:22:07;;;;;;;26.60;2.00;;;30.50;1.00;;;;;;5024869;28;20472;-60
2022/05/26 06:24:33;;;;;;;24.80;1.80;;;31.40;1.00;;;;;;5024470;28;20491;-59
2022/05/26 06:29:49;;;;;;;24.80;1.53;;;31.30;1.00;;;;;;5023224;28;20475;-59
2022/05/26 06:29:50;;;;;;;25.37;2.10;;;30.40;1.00;;;;;;5029504;28;20458;-60
2022/05/26 06:37:56;;;;;;;27.03;2.00;;;27.60;3.60;;;;;;5000127;28;20483;-59
2022/05/26 06:40:23;;;;;;;25.37;1.60;;;27.20;4.30;;;;;;5029111;28;20484;-60
2022/05/26 06:42:51;;;;;;;25.50;1.90;;;26.60;5.10;;;;;;5021019;28;20473;-61
2022/05/26 06:45:19;;;;;;;28.73;2.00;;;26.50;6.30;;;;;;5022201;28;21205;-59
2022/05/26 06:47:46;;;;;;;26.07;1.70;;;27.10;5.20;;;;;;5026852;28;20455;-58
2022/05/26 06:50:14;;;;;;;30.73;2.23;;;27.20;4.70;;;;;;5027280;28;20487;-59
2022/05/26 06:52:40;;;;;;;26.10;2.17;;;27.80;4.00;;;;;;5026771;28;21183;-60
2022/05/26 06:55:09;;;;;;;28.07;2.20;;;28.30;3.60;;;;;;5029226;28;20490;-60
2022/05/26 06:57:35;;;;;;;29.10;2.30;;;28.80;2.30;;;;;;5030172;28;20458;-60
2022/05/26 07:00:04;;;;;;;25.37;1.80;;;28.90;2.40;;;;;;5021671;28;20965;-60
2022/05/26 07:02:31;;;;;;;25.03;1.63;;;29.80;2.00;;;;;;5025365;28;20479;-60
2022/05/26 07:04:58;;;;;;;25.47;1.70;;;29.80;1.20;;;;;;5030796;28;20477;-60
2022/05/26 07:07:26;;;;;;;25.57;1.90;;;29.60;1.20;;;;;;5023978;28;20463;-59
2022/05/26 07:09:55;;;;;;;25.10;1.60;;;29.40;1.30;;;;;;5018492;28;20484;-60
2022/05/26 07:12:22;;;;;;;24.77;1.60;;;30.60;1.00;;;;;;5031955;28;20459;-60
2022/05/26 07:14:48;;;;;;;24.70;1.47;;;33.50;1.00;;;;;;5026166;28;20475;-59
2022/05/26 07:17:17;;;;;;;25.70;1.40;;;35.70;1.00;;;;;;5025363;28;20809;-59
2022/05/26 07:19:44;;;;;;;23.90;1.43;;;37.10;1.00;;;;;;5021268;28;20463;-59
2022/05/26 07:22:11;;;;;;;23.20;1.20;;;36.60;1.00;;;;;;5024840;28;20465;-60
2022/05/26 07:24:38;;;;;;;24.37;1.57;;;35.30;1.00;;;;;;5022622;28;20490;-60
2022/05/26 07:27:06;;;;;;;24.33;1.57;;;33.90;1.00;;;;;;5025631;28;20558;-60
2022/05/26 07:29:32;;;;;;;24.40;1.37;;;32.80;1.00;;;;;;5020803;28;20486;-60
2022/05/26 07:31:59;;;;;;;26.60;1.80;;;32.30;1.00;;;;;;5030024;28;20487;-59
2022/05/26 07:34:28;;;;;;;25.07;1.60;;;32.10;1.00;;;;;;5024610;28;20488;-63
2022/05/26 07:42:35;;;;;;;25.63;1.50;;;30.10;1.00;;;;;;4982242;28;20474;-59
2022/05/26 07:45:03;;;;;;;26.17;1.80;;;29.50;1.00;;;;;;5019413;28;20491;-57
2022/05/26 07:47:30;;;;;;;25.70;1.37;;;28.80;1.00;;;;;;5031770;28;20466;-58
2022/05/26 07:49:58;;;;;;;26.80;1.60;;;28.20;1.00;;;;;;5019592;28;22826;-59
2022/05/26 07:52:25;;;;;;;27.10;1.40;;;27.60;1.10;;;;;;5017785;28;20475;-57
2022/05/26 07:54:52;;;;;;;26.10;1.70;;;27.20;2.00;;;;;;5023337;28;20483;-60
2022/05/26 07:57:23;;;;;;;25.47;1.60;;;27.20;2.50;;;;;;5029047;28;20527;-59
2022/05/26 07:59:50;;;;;;;27.23;2.00;;;29.60;1.20;;;;;;5030334;28;20471;-60
2022/05/26 08:02:17;;;;;;;26.20;1.90;;;33.30;1.00;;;;;;5024393;28;20971;-59
2022/05/26 08:04:43;;;;;;;25.17;1.70;;;34.00;1.00;;;;;;5024384;28;20498;-60
2022/05/26 08:07:12;;;;;;;25.37;1.77;;;34.70;1.00;;;;;;5038687;28;20469;-60
2022/05/26 08:09:40;;;;;;;24.00;1.23;;;38.00;1.00;;;;;;5032189;28;20921;-59
2022/05/26 08:12:08;;;;;;;23.10;1.60;;;41.00;1.00;;;;;;5031628;28;20553;-59
2022/05/26 08:14:35;;;;;;;23.90;1.47;;;41.00;1.00;;;;;;5026529;28;20474;-58
2022/05/26 08:17:02;;;;;;;23.50;1.20;;;40.30;1.00;;;;;;5028907;28;20462;-58
2022/05/26 08:19:30;;;;;;;21.90;1.10;;;41.10;1.00;;;;;;5026223;28;20466;-60
2022/05/26 08:21:57;;;;;;;25.27;1.57;;;40.90;1.00;;;;;;5030103;28;20475;-58
2022/05/26 08:24:25;;;;;;;23.57;1.43;;;41.20;1.00;;;;;;5028637;28;20482;-58
2022/05/26 08:26:52;;;;;;;22.50;1.30;;;40.80;1.00;;;;;;5026336;28;20474;-59
2022/05/26 08:29:19;;;;;;;22.53;1.30;;;38.90;1.00;;;;;;5023272;28;20845;-60
2022/05/26 08:31:46;;;;;;;24.10;1.47;;;36.90;1.00;;;;;;5028610;28;20478;-60
2022/05/26 08:34:13;;;;;;;23.63;1.30;;;35.30;1.00;;;;;;5026752;28;20474;-58
2022/05/26 08:36:40;;;;;;;23.90;1.40;;;34.10;1.00;;;;;;5026821;28;20455;-59
2022/05/26 08:39:07;;;;;;;25.07;1.73;;;33.40;1.00;;;;;;5030100;28;20465;-59
2022/05/26 08:41:40;;;;;;;24.63;1.70;;;34.30;1.00;;;;;;5027894;28;20455;-59
2022/05/26 08:44:11;;;;;;;25.10;1.47;;;36.60;1.00;;;;;;5026104;28;20483;-56
2022/05/26 08:46:43;;;;;;;23.40;1.63;;;38.20;1.00;;;;;;5029301;28;20466;-58
2022/05/26 08:49:16;;;;;;;23.77;1.30;;;38.60;1.00;;;;;;5033985;28;20916;-61
2022/05/26 08:51:45;;;;;;;24.40;1.20;;;38.40;1.00;;;;;;5028636;28;20467;-59
2022/05/26 08:54:25;;;;;;;24.00;1.40;;;39.00;1.00;;;;;;5025138;28;20949;-60
2022/05/26 08:56:56;;;;;;;23.70;1.63;;;40.50;1.00;;;;;;5028568;28;20836;-61
2022/05/26 08:59:31;;;;;;;23.83;1.27;;;40.70;1.00;;;;;;5025186;28;20454;-60
2022/05/26 09:02:01;;;;;;;22.30;1.40;;;42.20;1.00;;;;;;5029026;28;20474;-58
2022/05/26 09:04:28;;;;;;;24.83;1.40;;;41.50;1.00;;;;;;5029718;28;21004;-59
2022/05/26 09:15:19;;;;;;;23.57;1.83;;;37.20;1.00;;;;;;5019773;28;20865;-59
2022/05/26 09:17:45;;;;;;;23.87;1.30;;;36.00;1.00;;;;;;5028203;28;20474;-58
2022/05/26 09:20:29;;;;;;;23.97;1.30;;;34.60;1.00;;;;;;5035130;28;20475;-57
2022/05/26 09:23:09;;;;;;;26.13;1.90;;;33.20;1.00;;;;;;5027105;28;20475;-59
2022/05/26 09:25:38;;;;;;;23.80;1.30;;;32.30;1.00;;;;;;5030522;28;20490;-57
2022/05/26 09:28:09;;;;;;;27.33;1.73;;;34.40;1.00;;;;;;5022861;28;20464;-59
2022/05/26 09:30:37;;;;;;;23.90;1.37;;;37.50;1.00;;;;;;5025561;28;20471;-60
2022/05/26 09:33:18;;;;;;;24.70;1.63;;;37.80;1.00;;;;;;5028702;28;20459;-60
2022/05/26 09:35:45;;;;;;;24.97;2.00;;;37.60;1.00;;;;;;5025876;28;20505;-58
2022/05/26 09:38:17;;;;;;;24.37;1.30;;;35.80;1.00;;;;;;5021394;28;23023;-59
2022/05/26 09:40:46;;;;;;;23.97;1.63;;;34.40;1.00;;;;;;5018840;28;20466;-59
2022/05/26 09:43:25;;;;;;;24.50;1.20;;;33.40;1.00;;;;;;5028765;28;20982;-59
2022/05/26 09:45:54;;;;;;;25.60;1.90;;;32.20;1.00;;;;;;5022754;28;20479;-59
2022/05/26 09:48:27;;;;;;;24.07;1.20;;;31.20;1.00;;;;;;5023895;28;20469;-60
2022/05/26 09:51:07;;;;;;;26.43;1.57;;;30.90;1.00;;;;;;5028300;28;20466;-58
2022/05/26 09:53:38;;;;;;;25.47;1.30;;;30.60;1.00;;;;;;5036183;28;20824;-58
2022/05/26 09:56:05;;;;;;;26.47;1.43;;;30.40;1.00;;;;;;5018101;28;21028;-58
2022/05/26 09:58:37;;;;;;;24.77;1.20;;;29.90;1.00;;;;;;5033717;28;20462;-58
2022/05/26 10:01:08;;;;;;;25.27;1.40;;;29.40;1.00;;;;;;5032935;28;20854;-58
2022/05/26 10:03:42;;;;;;;24.83;1.20;;;29.10;1.00;;;;;;5030168;28;20466;-59
2022/05/26 10:06:17;;;;;;;25.33;1.40;;;28.70;1.00;;;;;;5023459;28;20478;-60
2022/05/26 10:08:53;;;;;;;24.90;1.20;;;28.30;1.00;;;;;;5026693;28;20462;-58
2022/05/26 10:11:35;;;;;;;24.90;1.20;;;27.90;1.00;;;;;;5023592;28;20473;-60
2022/05/26 10:14:18;;;;;;;24.97;1.20;;;27.70;1.00;;;;;;5024341;28;20491;-58
2022/05/26 10:16:53;;;;;;;25.47;1.50;;;27.40;1.00;;;;;;5034585;28;20455;-61
2022/05/26 10:19:30;;;;;;;27.60;1.80;;;27.40;1.00;;;;;;5031148;28;20462;-62
2022/05/26 10:22:08;;;;;;;25.80;1.30;;;27.30;1.00;;;;;;5030014;28;20829;-60
2022/05/26 10:24:50;;;;;;;25.80;1.43;;;27.20;1.70;;;;;;5034700;28;20496;-59
2022/05/26 10:27:39;;;;;;;26.57;1.33;;;27.00;1.30;;;;;;5027761;28;20972;-59
2022/05/26 10:30:33;;;;;;;25.60;1.47;;;27.10;2.20;;;;;;5026841;28;20471;-60
2022/05/26 10:33:30;;;;;;;27.53;1.63;;;27.30;2.20;;;;;;5026010;28;20554;-60
2022/05/26 10:36:08;;;;;;;26.00;1.40;;;27.30;1.20;;;;;;5025954;28;20472;-60
2022/05/26 10:39:05;;;;;;;26.47;1.70;;;27.40;1.60;;;;;;5029956;28;20542;-61
2022/05/26 10:41:37;;;;;;;25.73;1.47;;;27.40;2.30;;;;;;5021440;28;20516;-60
2022/05/26 10:44:13;;;;;;;25.50;1.70;;;27.50;1.70;;;;;;5023628;28;20490;-60
2022/05/26 10:46:46;;;;;;;25.37;1.40;;;27.40;1.60;;;;;;5033587;28;20484;-61
2022/05/26 10:49:19;;;;;;;26.00;1.30;;;27.30;2.40;;;;;;5028051;28;20905;-60
2022/05/26 10:51:53;;;;;;;25.30;1.50;;;27.30;1.70;;;;;;5024305;28;20463;-60
2022/05/26 10:54:29;;;;;;;25.87;1.60;;;27.00;2.10;;;;;;5029729;28;20568;-61
2022/05/26 10:57:03;;;;;;;26.40;1.50;;;26.80;2.20;;;;;;5020272;28;20459;-62
2022/05/26 10:59:37;;;;;;;27.00;2.13;;;26.60;2.50;;;;;;5027408;28;20469;-58
2022/05/26 11:02:12;;;;;;;27.33;1.70;;;26.40;2.50;;;;;;5028029;28;21042;-60
2022/05/26 11:04:46;;;;;;;26.10;1.50;;;26.10;2.70;;;;;;5027109;28;20565;-60
2022/05/26 11:07:18;;;;;;;25.83;1.57;;;26.00;3.10;;;;;;5023139;28;20536;-59
2022/05/26 11:09:51;;;;;;;26.40;2.00;;;25.90;2.90;;;;;;5024916;28;20463;-59
2022/05/26 11:12:28;;;;;;;25.70;1.60;;;25.80;3.00;;;;;;5025020;28;21010;-60
2022/05/26 11:17:52;;;;;;;25.83;1.30;;;25.50;4.30;;;;;;5035590;28;21160;-60
2022/05/26 11:20:21;;;;;;;25.23;1.80;;;25.40;3.80;;;;;;5025625;28;20981;-59
2022/05/26 11:22:49;;;;;;;25.07;1.43;;;25.40;6.10;;;;;;5033398;28;21089;-59
2022/05/26 11:25:21;;;;;;;25.40;1.40;;;25.60;5.80;;;;;;5029122;28;21024;-59
2022/05/26 11:27:53;;;;;;;27.00;1.67;;;25.80;4.90;;;;;;5028596;28;20475;-60
2022/05/26 11:36:08;;;;;;;25.07;1.70;;;26.30;3.30;;;;;;5017307;28;20450;-63
2022/05/26 11:38:40;;;;;;;26.70;1.67;;;26.50;3.60;;;;;;5021924;28;20561;-63
2022/05/26 11:41:10;;;;;;;25.93;1.50;;;26.50;3.20;;;;;;5014388;28;20546;-63
2022/05/26 11:43:44;;;;;;;27.33;1.47;;;26.40;5.90;;;;;;5028707;28;20462;-63
2022/05/26 11:46:13;;;;;;;25.30;1.50;;;26.20;5.60;;;;;;5034547;28;20466;-63
2022/05/26 11:48:46;;;;;;;24.87;1.50;;;26.00;6.30;;;;;;5020683;28;20525;-64
2022/05/26 11:51:40;;;;;;;24.97;1.37;;;25.80;6.30;;;;;;5024469;28;20473;-63
2022/05/26 11:54:08;;;;;;;25.47;1.57;;;25.70;6.50;;;;;;5030922;28;21015;-60
2022/05/26 11:56:50;;;;;;;25.87;1.80;;;25.70;6.50;;;;;;5034051;28;20533;-60
2022/05/26 11:59:46;;;;;;;25.50;1.50;;;25.80;6.20;;;;;;5029643;28;20845;-59
2022/05/26 12:02:36;;;;;;;25.43;1.50;;;25.80;6.70;;;;;;5017585;28;21037;-59
2022/05/26 12:05:42;;;;;;;26.50;2.10;;;25.80;6.20;;;;;;5019175;28;20486;-62
2022/05/26 12:11:06;;;;;;;26.30;1.67;;;25.80;5.20;;;;;;5111797;27;21104;-61
2022/05/26 12:13:38;;;;;;;26.40;2.00;;;25.70;5.30;;;;;;5095961;28;20555;-59
2022/05/26 12:16:33;;;;;;;25.27;1.80;;;25.70;6.30;;;;;;5093147;28;20459;-62
2022/05/26 12:19:02;;;;;;;25.80;1.93;;;25.60;6.60;;;;;;5091790;28;20925;-60
2022/05/26 12:21:39;;;;;;;25.37;1.80;;;25.60;6.20;;;;;;5095101;28;20467;-59
2022/05/26 12:24:59;;;;;;;25.40;1.90;;;25.70;6.70;;;;;;5089384;28;20503;-62
2022/05/26 12:28:08;;;;;;;25.50;1.80;;;25.80;6.50;;;;;;5095155;28;20463;-59
2022/05/26 12:31:03;;;;;;;26.03;2.00;;;25.80;5.40;;;;;;5088042;28;20472;-59
2022/05/26 12:33:51;;;;;;;26.33;2.00;;;25.80;7.10;;;;;;5090223;28;20455;-61
2022/05/26 12:36:23;;;;;;;25.27;1.83;;;25.80;7.30;;;;;;5091175;28;20461;-61
2022/05/26 12:39:02;;;;;;;26.20;2.07;;;25.80;7.00;;;;;;5098900;28;21005;-62
2022/05/26 12:41:39;;;;;;;26.50;2.00;;;25.90;7.30;;;;;;5094208;28;20451;-60
2022/05/26 12:44:30;;;;;;;28.40;1.77;;;26.10;6.70;;;;;;5097914;28;20471;-62
2022/05/26 12:47:26;;;;;;;26.80;1.67;;;26.20;7.00;;;;;;5101398;28;20509;-60
2022/05/26 12:50:02;;;;;;;25.20;1.60;;;26.30;6.10;;;;;;5105435;28;20486;-62
2022/05/26 12:52:33;;;;;;;27.03;2.00;;;26.20;6.60;;;;;;5099605;28;20459;-62
2022/05/26 12:55:21;;;;;;;25.67;2.50;;;26.10;7.90;;;;;;5112477;22;20463;-64
2022/05/26 12:57:54;;;;;;;25.27;1.53;;;25.90;7.60;;;;;;5074762;28;20459;-66
2022/05/26 13:00:34;;;;;;;31.60;2.27;;;25.60;7.30;;;;;;5076217;28;20461;-65
2022/05/26 13:03:06;;;;;;;26.23;2.67;;;25.50;7.40;;;;;;5080286;28;20452;-65
2022/05/26 13:05:35;;;;;;;25.47;2.43;;;25.60;8.60;;;;;;5086368;28;20490;-64
2022/05/26 13:08:04;;;;;;;25.50;1.57;;;25.60;8.30;;;;;;5099065;28;20462;-64
2022/05/26 13:10:35;;;;;;;25.80;1.73;;;25.70;8.60;;;;;;5092661;28;20487;-64
2022/05/26 13:13:04;;;;;;;25.67;1.90;;;25.80;7.00;;;;;;5098721;28;20495;-66
2022/05/26 13:15:31;;;;;;;26.30;1.77;;;25.60;5.80;;;;;;5097186;28;20479;-64
2022/05/26 13:17:58;;;;;;;26.27;2.10;;;25.30;6.20;;;;;;5092599;28;20463;-65
2022/05/26 13:20:34;;;;;;;26.10;1.73;;;25.20;8.10;;;;;;5095669;28;20488;-65
2022/05/26 13:23:02;;;;;;;26.70;1.90;;;25.10;7.00;;;;;;5081428;28;20475;-65
2022/05/26 13:25:32;;;;;;;25.77;1.53;;;25.00;6.20;;;;;;5087468;28;20472;-63
2022/05/26 13:28:01;;;;;;;25.70;1.93;;;25.00;6.40;;;;;;5079752;28;20467;-64
2022/05/26 13:33:22;;;;;;;25.67;1.50;;;25.10;6.10;;;;;;5081256;28;20602;-65
2022/05/26 13:35:57;;;;;;;27.17;2.30;;;25.20;6.60;;;;;;5084172;28;20483;-65
2022/05/26 13:38:30;;;;;;;25.73;1.70;;;25.20;8.40;;;;;;5079527;28;20455;-65
2022/05/26 13:40:58;;;;;;;26.20;2.07;;;25.10;8.30;;;;;;5083093;28;20456;-64
2022/05/26 13:43:26;;;;;;;26.47;1.80;;;25.00;9.30;;;;;;5082440;28;20449;-64
2022/05/26 13:45:53;;;;;;;25.80;2.00;;;24.90;9.30;;;;;;5081520;28;21012;-65
2022/05/26 13:48:35;;;;;;;26.03;1.90;;;24.90;8.80;;;;;;5079001;28;20457;-65